sensor_id;sensor_type;location;lat;lon;timestamp;pressure;altitude;pressure_sealevel;temperature;humidity
3697;BME280;60662;48.810;8.872;2023-05-19T04:43:32;97033.38;;;8.15;77.67
3697;BME280;60662;48.810;8.872;2023-05-19T04:44:33;97016.94;;;8.14;77.22
3697;BME280;60662;48.810;8.872;2023-05-19T06:16:56;97031.16;;;11.31;67.78
3697;BME280;60662;48.810;8.872;2023-05-19T06:19:09;97024.19;;;11.52;66.63
3697;BME280;60662;48.810;8.872;2023-05-19T06:21:22;97024.56;;;11.64;66.65
3697;BME280;60662;48.810;8.872;2023-05-19T06:23:35;97024.16;;;11.73;65.97
3697;BME280;60662;48.810;8.872;2023-05-19T06:25:48;97032.75;;;11.97;66.50
3697;BME280;60662;48.810;8.872;2023-05-19T06:28:03;97030.56;;;12.07;65.62
3697;BME280;60662;48.810;8.872;2023-05-19T06:30:22;96990.97;;;11.94;67.76
3697;BME280;60662;48.810;8.872;2023-05-19T06:32:41;97036.72;;;12.65;66.34
3697;BME280;60662;48.810;8.872;2023-05-19T06:35:00;97026.56;;;12.76;65.65
3697;BME280;60662;48.810;8.872;2023-05-19T06:37:22;97027.19;;;12.81;65.98
3697;BME280;60662;48.810;8.872;2023-05-19T06:38:24;97018.19;;;12.87;64.56
3697;BME280;60662;48.810;8.872;2023-05-19T06:40:33;97036.56;;;12.49;65.57
3697;BME280;60662;48.810;8.872;2023-05-19T06:41:34;97032.56;;;12.78;64.93
3697;BME280;60662;48.810;8.872;2023-05-19T06:42:36;97029.00;;;12.98;64.17
3697;BME280;60662;48.810;8.872;2023-05-19T06:43:37;97035.13;;;13.16;63.69
3697;BME280;60662;48.810;8.872;2023-05-19T06:45:44;97034.69;;;13.26;62.90
3697;BME280;60662;48.810;8.872;2023-05-19T06:46:45;97023.94;;;13.13;63.15
3697;BME280;60662;48.810;8.872;2023-05-19T06:47:48;97030.00;;;12.96;63.74
3697;BME280;60662;48.810;8.872;2023-05-19T06:48:50;97033.75;;;13.09;64.00
3697;BME280;60662;48.810;8.872;2023-05-19T06:49:51;97034.22;;;13.35;64.51
3697;BME280;60662;48.810;8.872;2023-05-19T06:50:56;97031.81;;;13.30;63.22
3697;BME280;60662;48.810;8.872;2023-05-19T06:51:57;97036.28;;;13.47;63.26
3697;BME280;60662;48.810;8.872;2023-05-19T06:52:59;97038.44;;;13.57;63.23
3697;BME280;60662;48.810;8.872;2023-05-19T06:54:01;97033.34;;;13.53;63.05
3697;BME280;60662;48.810;8.872;2023-05-19T06:55:03;97038.16;;;13.79;61.90
3697;BME280;60662;48.810;8.872;2023-05-19T06:56:04;97036.16;;;13.84;62.23
3697;BME280;60662;48.810;8.872;2023-05-19T06:57:06;97032.88;;;13.63;63.05
3697;BME280;60662;48.810;8.872;2023-05-19T06:59:12;97037.41;;;13.59;63.53
3697;BME280;60662;48.810;8.872;2023-05-19T07:00:15;97038.03;;;13.47;63.18
3697;BME280;60662;48.810;8.872;2023-05-19T07:02:38;97036.16;;;12.95;63.98
3697;BME280;60662;48.810;8.872;2023-05-19T07:03:39;97039.13;;;13.06;64.41
3697;BME280;60662;48.810;8.872;2023-05-19T07:04:41;97027.41;;;13.13;64.11
3697;BME280;60662;48.810;8.872;2023-05-19T07:06:48;97043.00;;;13.34;63.59
3697;BME280;60662;48.810;8.872;2023-05-19T07:07:50;97039.47;;;13.35;63.69
3697;BME280;60662;48.810;8.872;2023-05-19T07:08:51;97030.81;;;13.33;63.25
3697;BME280;60662;48.810;8.872;2023-05-19T07:09:53;97031.16;;;13.44;62.99
3697;BME280;60662;48.810;8.872;2023-05-19T07:10:55;97042.13;;;13.52;62.81
3697;BME280;60662;48.810;8.872;2023-05-19T07:11:56;97043.66;;;13.39;63.44
3697;BME280;60662;48.810;8.872;2023-05-19T07:12:58;97033.97;;;13.41;63.32
3697;BME280;60662;48.810;8.872;2023-05-19T07:14:00;97035.28;;;13.50;63.05
3697;BME280;60662;48.810;8.872;2023-05-19T07:15:02;97036.50;;;13.60;62.74
3697;BME280;60662;48.810;8.872;2023-05-19T07:16:03;97036.31;;;13.63;62.28
3697;BME280;60662;48.810;8.872;2023-05-19T07:17:05;97033.63;;;13.82;62.63
3697;BME280;60662;48.810;8.872;2023-05-19T07:18:06;97039.31;;;13.91;62.29
3697;BME280;60662;48.810;8.872;2023-05-19T07:19:08;97038.06;;;13.98;62.31
3697;BME280;60662;48.810;8.872;2023-05-19T07:20:10;97033.56;;;14.17;61.38
3697;BME280;60662;48.810;8.872;2023-05-19T07:21:12;97029.47;;;14.12;61.67
3697;BME280;60662;48.810;8.872;2023-05-19T07:22:13;97035.78;;;14.25;62.45
3697;BME280;60662;48.810;8.872;2023-05-19T07:23:15;97029.28;;;14.48;61.80
3697;BME280;60662;48.810;8.872;2023-05-19T07:24:17;97027.56;;;14.47;61.90
3697;BME280;60662;48.810;8.872;2023-05-19T07:25:21;97029.13;;;14.51;61.35
3697;BME280;60662;48.810;8.872;2023-05-19T07:26:23;97020.03;;;14.57;61.98
3697;BME280;60662;48.810;8.872;2023-05-19T07:27:24;97026.31;;;14.54;61.51
3697;BME280;60662;48.810;8.872;2023-05-19T07:28:26;97026.63;;;14.82;60.55
3697;BME280;60662;48.810;8.872;2023-05-19T07:29:27;97027.78;;;14.60;60.68
3697;BME280;60662;48.810;8.872;2023-05-19T07:30:29;97032.47;;;14.87;61.21
3697;BME280;60662;48.810;8.872;2023-05-19T07:31:31;97031.75;;;14.99;60.27
3697;BME280;60662;48.810;8.872;2023-05-19T07:32:33;97031.00;;;14.81;59.05
3697;BME280;60662;48.810;8.872;2023-05-19T07:33:35;97016.13;;;14.48;59.61
3697;BME280;60662;48.810;8.872;2023-05-19T07:34:36;97017.88;;;14.65;59.34
3697;BME280;60662;48.810;8.872;2023-05-19T07:35:38;97033.50;;;14.35;59.57
3697;BME280;60662;48.810;8.872;2023-05-19T07:36:40;97025.97;;;14.45;60.20
3697;BME280;60662;48.810;8.872;2023-05-19T07:37:42;97024.56;;;14.71;59.82
3697;BME280;60662;48.810;8.872;2023-05-19T07:38:45;97019.47;;;14.84;60.03
3697;BME280;60662;48.810;8.872;2023-05-19T07:39:47;97030.09;;;14.98;60.65
3697;BME280;60662;48.810;8.872;2023-05-19T07:40:48;97020.59;;;14.96;60.61
3697;BME280;60662;48.810;8.872;2023-05-19T07:41:50;97021.59;;;14.93;60.49
3697;BME280;60662;48.810;8.872;2023-05-19T07:42:55;97022.72;;;14.73;60.27
3697;BME280;60662;48.810;8.872;2023-05-19T07:43:57;97026.38;;;14.71;60.68
3697;BME280;60662;48.810;8.872;2023-05-19T07:44:58;97023.44;;;14.59;61.27
3697;BME280;60662;48.810;8.872;2023-05-19T07:46:00;97025.06;;;14.62;61.05
3697;BME280;60662;48.810;8.872;2023-05-19T07:47:01;97025.47;;;14.54;61.30
3697;BME280;60662;48.810;8.872;2023-05-19T07:48:03;97019.78;;;14.46;61.06
3697;BME280;60662;48.810;8.872;2023-05-19T07:49:05;97025.56;;;14.52;60.71
3697;BME280;60662;48.810;8.872;2023-05-19T07:50:07;97025.91;;;14.46;60.15
3697;BME280;60662;48.810;8.872;2023-05-19T07:51:10;97019.44;;;14.36;60.44
3697;BME280;60662;48.810;8.872;2023-05-19T07:52:11;97027.56;;;14.47;60.92
3697;BME280;60662;48.810;8.872;2023-05-19T07:53:13;97026.66;;;14.48;60.79
3697;BME280;60662;48.810;8.872;2023-05-19T07:54:15;97024.00;;;14.32;60.84
3697;BME280;60662;48.810;8.872;2023-05-19T07:55:17;97017.16;;;14.30;61.55
3697;BME280;60662;48.810;8.872;2023-05-19T07:56:19;97024.81;;;14.17;61.42
3697;BME280;60662;48.810;8.872;2023-05-19T07:57:21;97010.00;;;14.32;61.10
3697;BME280;60662;48.810;8.872;2023-05-19T07:58:23;97020.78;;;14.43;60.86
3697;BME280;60662;48.810;8.872;2023-05-19T07:59:24;97030.88;;;14.35;61.16
3697;BME280;60662;48.810;8.872;2023-05-19T08:00:26;97017.56;;;14.38;60.86
3697;BME280;60662;48.810;8.872;2023-05-19T08:01:28;97013.75;;;14.28;60.95
3697;BME280;60662;48.810;8.872;2023-05-19T08:02:30;97021.19;;;14.19;61.49
3697;BME280;60662;48.810;8.872;2023-05-19T08:03:32;97015.19;;;14.17;61.11
3697;BME280;60662;48.810;8.872;2023-05-19T08:04:34;97017.63;;;14.20;61.78
3697;BME280;60662;48.810;8.872;2023-05-19T08:05:36;97015.91;;;13.70;61.71
3697;BME280;60662;48.810;8.872;2023-05-19T08:06:37;97015.34;;;13.46;63.21
3697;BME280;60662;48.810;8.872;2023-05-19T08:07:39;96999.56;;;13.81;62.08
3697;BME280;60662;48.810;8.872;2023-05-19T08:08:41;97007.19;;;14.03;61.92
3697;BME280;60662;48.810;8.872;2023-05-19T08:09:42;97017.53;;;14.06;61.93
3697;BME280;60662;48.810;8.872;2023-05-19T08:10:44;97002.47;;;14.10;61.41
3697;BME280;60662;48.810;8.872;2023-05-19T08:11:46;97015.59;;;14.26;61.65
3697;BME280;60662;48.810;8.872;2023-05-19T08:12:47;97018.81;;;14.15;61.52
3697;BME280;60662;48.810;8.872;2023-05-19T08:13:49;96997.66;;;14.00;61.91
3697;BME280;60662;48.810;8.872;2023-05-19T08:14:51;97008.13;;;14.02;61.38
3697;BME280;60662;48.810;8.872;2023-05-19T08:15:52;97014.56;;;14.12;61.50
3697;BME280;60662;48.810;8.872;2023-05-19T08:16:59;97009.03;;;14.01;61.24
3697;BME280;60662;48.810;8.872;2023-05-19T08:18:01;97009.47;;;14.09;60.53
3697;BME280;60662;48.810;8.872;2023-05-19T08:19:03;97005.59;;;13.83;60.76
3697;BME280;60662;48.810;8.872;2023-05-19T08:20:07;97018.34;;;12.84;63.89
3697;BME280;60662;48.810;8.872;2023-05-19T08:21:10;97004.84;;;13.28;63.66
3697;BME280;60662;48.810;8.872;2023-05-19T08:22:12;97004.63;;;13.68;63.21
3697;BME280;60662;48.810;8.872;2023-05-19T08:23:13;96997.66;;;13.84;63.61
3697;BME280;60662;48.810;8.872;2023-05-19T08:24:14;97003.03;;;13.81;62.69
3697;BME280;60662;48.810;8.872;2023-05-19T08:25:16;97002.09;;;14.00;62.99
3697;BME280;60662;48.810;8.872;2023-05-19T08:26:19;97002.19;;;14.14;62.39
3697;BME280;60662;48.810;8.872;2023-05-19T08:27:21;97002.19;;;14.14;62.74
3697;BME280;60662;48.810;8.872;2023-05-19T08:28:23;97002.09;;;14.00;62.73
3697;BME280;60662;48.810;8.872;2023-05-19T08:29:24;97004.31;;;14.08;62.97
3697;BME280;60662;48.810;8.872;2023-05-19T08:30:26;96998.69;;;13.98;62.77
3697;BME280;60662;48.810;8.872;2023-05-19T08:31:28;97001.25;;;13.99;62.20
3697;BME280;60662;48.810;8.872;2023-05-19T08:32:29;97003.38;;;13.75;62.52
3697;BME280;60662;48.810;8.872;2023-05-19T08:33:31;96995.44;;;13.77;62.41
3697;BME280;60662;48.810;8.872;2023-05-19T08:34:33;97000.75;;;13.75;62.58
3697;BME280;60662;48.810;8.872;2023-05-19T08:35:34;96999.69;;;13.62;62.55
3697;BME280;60662;48.810;8.872;2023-05-19T08:36:36;96997.38;;;13.55;63.12
3697;BME280;60662;48.810;8.872;2023-05-19T08:37:37;97001.22;;;13.66;63.02
3697;BME280;60662;48.810;8.872;2023-05-19T08:38:39;96997.38;;;13.55;63.47
3697;BME280;60662;48.810;8.872;2023-05-19T08:39:40;96985.56;;;13.64;63.19
3697;BME280;60662;48.810;8.872;2023-05-19T08:40:42;96978.38;;;13.68;63.20
3697;BME280;60662;48.810;8.872;2023-05-19T08:41:46;96998.56;;;13.83;62.51
3697;BME280;60662;48.810;8.872;2023-05-19T08:42:48;97003.31;;;13.93;62.22
3697;BME280;60662;48.810;8.872;2023-05-19T08:43:49;96998.25;;;13.90;61.78
3697;BME280;60662;48.810;8.872;2023-05-19T08:44:51;96990.47;;;13.88;62.96
3697;BME280;60662;48.810;8.872;2023-05-19T08:45:53;97003.41;;;13.91;62.39
3697;BME280;60662;48.810;8.872;2023-05-19T08:46:59;96983.50;;;13.87;62.65
3697;BME280;60662;48.810;8.872;2023-05-19T08:48:03;96997.53;;;13.52;61.57
3697;BME280;60662;48.810;8.872;2023-05-19T08:49:10;96998.69;;;13.64;62.73
3697;BME280;60662;48.810;8.872;2023-05-19T08:50:23;97002.72;;;13.87;62.29
3697;BME280;60662;48.810;8.872;2023-05-19T08:51:42;97001.13;;;14.18;61.46
3697;BME280;60662;48.810;8.872;2023-05-19T08:52:55;96994.69;;;14.24;61.72
3697;BME280;60662;48.810;8.872;2023-05-19T08:54:06;96991.81;;;13.95;61.71
3697;BME280;60662;48.810;8.872;2023-05-19T08:56:30;96990.44;;;14.21;61.87
3697;BME280;60662;48.810;8.872;2023-05-19T08:57:32;96992.47;;;14.16;61.96
3697;BME280;60662;48.810;8.872;2023-05-19T08:58:34;96994.53;;;14.43;61.81
3697;BME280;60662;48.810;8.872;2023-05-19T08:59:36;96992.81;;;14.42;61.55
3697;BME280;60662;48.810;8.872;2023-05-19T09:00:38;96987.00;;;14.53;60.61
3697;BME280;60662;48.810;8.872;2023-05-19T09:01:44;96998.28;;;14.55;61.01
3697;BME280;60662;48.810;8.872;2023-05-19T09:02:49;96994.34;;;14.62;60.96
3697;BME280;60662;48.810;8.872;2023-05-19T09:04:06;96998.38;;;14.69;60.70
3697;BME280;60662;48.810;8.872;2023-05-19T09:05:09;96996.88;;;13.82;62.68
3697;BME280;60662;48.810;8.872;2023-05-19T09:06:10;96984.72;;;13.64;61.24
3697;BME280;60662;48.810;8.872;2023-05-19T09:07:15;96993.00;;;13.90;61.37
3697;BME280;60662;48.810;8.872;2023-05-19T09:08:16;96983.28;;;14.08;61.06
3697;BME280;60662;48.810;8.872;2023-05-19T09:09:18;96980.09;;;14.18;60.90
3697;BME280;60662;48.810;8.872;2023-05-19T09:10:20;96990.66;;;14.01;61.23
3697;BME280;60662;48.810;8.872;2023-05-19T09:11:21;96988.91;;;14.17;60.24
3697;BME280;60662;48.810;8.872;2023-05-19T09:12:23;96988.72;;;14.20;59.68
3697;BME280;60662;48.810;8.872;2023-05-19T09:13:25;96987.16;;;14.34;59.35
3697;BME280;60662;48.810;8.872;2023-05-19T09:14:27;96984.94;;;14.58;59.16
3697;BME280;60662;48.810;8.872;2023-05-19T09:15:29;96987.19;;;14.66;59.20
3697;BME280;60662;48.810;8.872;2023-05-19T09:16:33;96986.38;;;14.64;58.67
3697;BME280;60662;48.810;8.872;2023-05-19T09:17:35;96985.44;;;13.83;59.35
3697;BME280;60662;48.810;8.872;2023-05-19T09:18:37;96986.44;;;13.81;60.01
3697;BME280;60662;48.810;8.872;2023-05-19T09:19:46;96992.16;;;13.89;60.17
3697;BME280;60662;48.810;8.872;2023-05-19T09:20:55;96990.25;;;13.75;60.38
3697;BME280;60662;48.810;8.872;2023-05-19T09:22:00;96992.03;;;13.57;60.24
3697;BME280;60662;48.810;8.872;2023-05-19T09:23:05;96984.41;;;13.52;60.77
3697;BME280;60662;48.810;8.872;2023-05-19T09:24:08;96982.41;;;13.91;61.08
3697;BME280;60662;48.810;8.872;2023-05-19T09:25:21;96986.56;;;14.29;61.55
3697;BME280;60662;48.810;8.872;2023-05-19T09:26:23;96977.41;;;14.36;61.13
3697;BME280;60662;48.810;8.872;2023-05-19T09:27:25;96989.09;;;14.30;59.68
3697;BME280;60662;48.810;8.872;2023-05-19T09:28:28;96989.88;;;14.32;60.39
3697;BME280;60662;48.810;8.872;2023-05-19T09:29:30;96980.28;;;14.47;60.21
3697;BME280;60662;48.810;8.872;2023-05-19T09:30:32;96982.06;;;14.47;60.41
3697;BME280;60662;48.810;8.872;2023-05-19T09:31:33;96986.09;;;14.04;60.88
3697;BME280;60662;48.810;8.872;2023-05-19T09:32:35;96983.84;;;14.30;60.54
3697;BME280;60662;48.810;8.872;2023-05-19T09:33:38;96985.97;;;14.56;59.82
3697;BME280;60662;48.810;8.872;2023-05-19T09:34:43;96984.13;;;14.58;59.79
3697;BME280;60662;48.810;8.872;2023-05-19T09:35:47;96975.50;;;14.72;59.85
3697;BME280;60662;48.810;8.872;2023-05-19T09:36:49;96975.66;;;14.68;59.54
3697;BME280;60662;48.810;8.872;2023-05-19T09:37:52;96980.91;;;14.52;59.82
3697;BME280;60662;48.810;8.872;2023-05-19T09:38:53;96969.09;;;14.28;60.08
3697;BME280;60662;48.810;8.872;2023-05-19T09:39:54;96980.88;;;14.36;60.57
3697;BME280;60662;48.810;8.872;2023-05-19T09:40:58;96981.22;;;14.62;59.47
3697;BME280;60662;48.810;8.872;2023-05-19T09:42:03;96974.44;;;14.58;59.67
3697;BME280;60662;48.810;8.872;2023-05-19T09:43:06;96974.53;;;14.73;59.93
3697;BME280;60662;48.810;8.872;2023-05-19T09:44:25;96977.00;;;14.76;59.63
3697;BME280;60662;48.810;8.872;2023-05-19T09:45:30;96977.16;;;14.73;59.59
3697;BME280;60662;48.810;8.872;2023-05-19T09:46:32;96974.25;;;14.61;59.64
3697;BME280;60662;48.810;8.872;2023-05-19T09:47:40;96979.97;;;14.69;59.07
3697;BME280;60662;48.810;8.872;2023-05-19T09:48:42;96977.25;;;14.87;58.64
3697;BME280;60662;48.810;8.872;2023-05-19T09:49:47;96981.25;;;14.78;59.04
3697;BME280;60662;48.810;8.872;2023-05-19T09:50:49;96982.75;;;14.98;58.93
3697;BME280;60662;48.810;8.872;2023-05-19T09:51:55;96973.59;;;14.90;58.21
3697;BME280;60662;48.810;8.872;2023-05-19T09:52:58;96983.88;;;14.78;58.71
3697;BME280;60662;48.810;8.872;2023-05-19T09:53:59;96982.75;;;14.82;58.77
3697;BME280;60662;48.810;8.872;2023-05-19T09:55:02;96978.97;;;14.72;59.52
3697;BME280;60662;48.810;8.872;2023-05-19T09:56:07;96980.13;;;14.82;60.00
3697;BME280;60662;48.810;8.872;2023-05-19T09:57:09;96976.56;;;14.83;59.30
3697;BME280;60662;48.810;8.872;2023-05-19T09:58:15;96984.56;;;14.82;59.45
3697;BME280;60662;48.810;8.872;2023-05-19T09:59:17;96975.13;;;14.46;58.95
3697;BME280;60662;48.810;8.872;2023-05-19T10:00:20;96977.34;;;14.37;60.04
3697;BME280;60662;48.810;8.872;2023-05-19T10:01:23;96977.41;;;14.36;59.41
3697;BME280;60662;48.810;8.872;2023-05-19T10:02:25;96973.59;;;14.42;60.03
3697;BME280;60662;48.810;8.872;2023-05-19T10:03:28;96975.78;;;14.49;59.70
3697;BME280;60662;48.810;8.872;2023-05-19T10:04:31;96974.38;;;14.44;59.12
3697;BME280;60662;48.810;8.872;2023-05-19T10:05:32;96973.59;;;14.42;59.14
3697;BME280;60662;48.810;8.872;2023-05-19T10:06:35;96977.91;;;14.59;59.09
3697;BME280;60662;48.810;8.872;2023-05-19T10:07:38;96982.56;;;14.06;59.35
3697;BME280;60662;48.810;8.872;2023-05-19T10:08:41;96979.56;;;13.96;59.72
3697;BME280;60662;48.810;8.872;2023-05-19T10:09:43;96979.00;;;14.23;59.86
3697;BME280;60662;48.810;8.872;2023-05-19T10:10:46;96978.34;;;14.35;59.49
3697;BME280;60662;48.810;8.872;2023-05-19T10:11:50;96978.88;;;14.58;58.66
3697;BME280;60662;48.810;8.872;2023-05-19T10:12:53;96972.19;;;14.68;58.32
3697;BME280;60662;48.810;8.872;2023-05-19T10:13:55;96980.06;;;14.68;57.91
3697;BME280;60662;48.810;8.872;2023-05-19T10:14:57;96971.91;;;14.57;57.93
3697;BME280;60662;48.810;8.872;2023-05-19T10:15:59;96977.00;;;14.76;57.40
3697;BME280;60662;48.810;8.872;2023-05-19T10:17:02;96965.81;;;14.40;58.70
3697;BME280;60662;48.810;8.872;2023-05-19T10:18:05;96966.31;;;14.63;58.62
3697;BME280;60662;48.810;8.872;2023-05-19T10:19:19;96960.75;;;14.69;59.28
3697;BME280;60662;48.810;8.872;2023-05-19T10:20:21;96959.94;;;14.83;58.83
3697;BME280;60662;48.810;8.872;2023-05-19T10:21:23;96968.00;;;14.96;58.35
3697;BME280;60662;48.810;8.872;2023-05-19T10:22:24;96967.84;;;15.13;58.17
3697;BME280;60662;48.810;8.872;2023-05-19T10:23:26;96965.66;;;15.06;57.60
3697;BME280;60662;48.810;8.872;2023-05-19T10:24:27;96971.66;;;15.24;58.41
3697;BME280;60662;48.810;8.872;2023-05-19T10:25:31;96968.84;;;15.27;57.84
3697;BME280;60662;48.810;8.872;2023-05-19T10:26:34;96972.06;;;15.32;57.61
3697;BME280;60662;48.810;8.872;2023-05-19T10:27:41;96977.22;;;15.33;57.20
3697;BME280;60662;48.810;8.872;2023-05-19T10:28:46;96969.72;;;15.42;57.65
3697;BME280;60662;48.810;8.872;2023-05-19T10:29:49;96970.22;;;15.48;58.01
3697;BME280;60662;48.810;8.872;2023-05-19T10:30:53;96971.19;;;15.62;56.69
3697;BME280;60662;48.810;8.872;2023-05-19T10:32:09;96969.38;;;15.62;56.69
3697;BME280;60662;48.810;8.872;2023-05-19T10:33:15;96966.19;;;15.57;56.59
3697;BME280;60662;48.810;8.872;2023-05-19T10:35:39;96967.78;;;15.60;57.23
3697;BME280;60662;48.810;8.872;2023-05-19T10:36:48;96968.34;;;15.65;57.34
3697;BME280;60662;48.810;8.872;2023-05-19T10:38:09;96964.56;;;15.40;57.73
3697;BME280;60662;48.810;8.872;2023-05-19T10:39:19;96972.84;;;15.18;57.24
3697;BME280;60662;48.810;8.872;2023-05-19T10:40:27;96969.63;;;15.29;57.35
3697;BME280;60662;48.810;8.872;2023-05-19T10:41:46;96978.56;;;15.55;57.48
3697;BME280;60662;48.810;8.872;2023-05-19T10:43:20;96964.31;;;15.59;56.58
3697;BME280;60662;48.810;8.872;2023-05-19T10:44:39;96970.06;;;15.66;55.71
3697;BME280;60662;48.810;8.872;2023-05-19T10:45:47;96951.81;;;15.77;55.89
3697;BME280;60662;48.810;8.872;2023-05-19T10:46:49;96958.53;;;15.83;55.96
3697;BME280;60662;48.810;8.872;2023-05-19T10:47:51;96947.91;;;15.85;55.28
3697;BME280;60662;48.810;8.872;2023-05-19T10:48:53;96965.41;;;16.00;55.77
3697;BME280;60662;48.810;8.872;2023-05-19T10:49:54;96962.47;;;16.05;55.50
3697;BME280;60662;48.810;8.872;2023-05-19T10:50:56;96962.41;;;16.06;55.54
3697;BME280;60662;48.810;8.872;2023-05-19T10:51:58;96954.59;;;15.90;56.22
3697;BME280;60662;48.810;8.872;2023-05-19T10:53:01;96970.66;;;15.86;55.48
3697;BME280;60662;48.810;8.872;2023-05-19T10:54:07;96965.47;;;15.70;55.10
3697;BME280;60662;48.810;8.872;2023-05-19T10:55:14;96968.56;;;15.76;55.73
3697;BME280;60662;48.810;8.872;2023-05-19T10:56:47;96966.34;;;15.85;56.41
3697;BME280;60662;48.810;8.872;2023-05-19T10:57:54;96967.31;;;15.67;57.15
3697;BME280;60662;48.810;8.872;2023-05-19T10:58:59;96967.88;;;15.73;57.24
3697;BME280;60662;48.810;8.872;2023-05-19T11:00:03;96964.78;;;15.80;56.93
3697;BME280;60662;48.810;8.872;2023-05-19T11:01:13;96969.50;;;15.75;57.21
3697;BME280;60662;48.810;8.872;2023-05-19T11:02:41;96972.69;;;15.66;57.17
3697;BME280;60662;48.810;8.872;2023-05-19T11:03:54;96974.75;;;15.61;56.03
3697;BME280;60662;48.810;8.872;2023-05-19T11:05:15;96979.31;;;15.43;56.52
3697;BME280;60662;48.810;8.872;2023-05-19T11:07:27;96976.72;;;15.72;56.81
3697;BME280;60662;48.810;8.872;2023-05-19T11:08:31;96964.31;;;15.74;56.74
3697;BME280;60662;48.810;8.872;2023-05-19T11:09:39;96975.69;;;15.74;56.23
3697;BME280;60662;48.810;8.872;2023-05-19T11:10:44;96969.25;;;15.35;56.60
3697;BME280;60662;48.810;8.872;2023-05-19T11:11:51;96969.38;;;15.48;57.05
3697;BME280;60662;48.810;8.872;2023-05-19T11:12:55;96976.25;;;15.50;56.69
3697;BME280;60662;48.810;8.872;2023-05-19T11:13:58;96977.75;;;15.69;57.24
3697;BME280;60662;48.810;8.872;2023-05-19T11:15:00;96977.16;;;15.35;57.42
3697;BME280;60662;48.810;8.872;2023-05-19T11:16:06;96966.53;;;15.37;57.51
3697;BME280;60662;48.810;8.872;2023-05-19T11:17:13;96972.16;;;15.45;56.84
3697;BME280;60662;48.810;8.872;2023-05-19T11:18:15;96971.34;;;15.14;57.13
3697;BME280;60662;48.810;8.872;2023-05-19T11:19:26;96971.66;;;15.24;57.18
3697;BME280;60662;48.810;8.872;2023-05-19T11:20:29;96967.56;;;15.34;56.54
3697;BME280;60662;48.810;8.872;2023-05-19T11:21:40;96972.81;;;15.34;56.80
3697;BME280;60662;48.810;8.872;2023-05-19T11:23:08;96972.50;;;15.24;57.41
3697;BME280;60662;48.810;8.872;2023-05-19T11:24:34;96971.03;;;15.34;56.96
3697;BME280;60662;48.810;8.872;2023-05-19T11:25:47;96964.94;;;14.88;57.82
3697;BME280;60662;48.810;8.872;2023-05-19T11:26:49;96969.31;;;15.03;58.14
3697;BME280;60662;48.810;8.872;2023-05-19T11:27:51;96965.19;;;14.83;58.63
3697;BME280;60662;48.810;8.872;2023-05-19T11:28:53;96968.06;;;14.94;59.24
3697;BME280;60662;48.810;8.872;2023-05-19T11:29:55;96958.94;;;14.85;58.17
3697;BME280;60662;48.810;8.872;2023-05-19T11:30:57;96963.88;;;14.76;58.32
3697;BME280;60662;48.810;8.872;2023-05-19T11:32:00;96964.13;;;14.71;57.88
3697;BME280;60662;48.810;8.872;2023-05-19T11:33:01;96954.38;;;14.73;58.18
3697;BME280;60662;48.810;8.872;2023-05-19T11:34:03;96963.53;;;14.82;58.69
3697;BME280;60662;48.810;8.872;2023-05-19T11:35:08;96965.13;;;14.68;57.97
3697;BME280;60662;48.810;8.872;2023-05-19T11:36:10;96964.31;;;14.68;58.56
3697;BME280;60662;48.810;8.872;2023-05-19T11:37:12;96962.69;;;14.65;58.85
3697;BME280;60662;48.810;8.872;2023-05-19T11:38:16;96961.50;;;14.55;59.16
3697;BME280;60662;48.810;8.872;2023-05-19T11:39:18;96949.28;;;14.54;59.08
3697;BME280;60662;48.810;8.872;2023-05-19T11:40:20;96957.66;;;14.61;59.15
3697;BME280;60662;48.810;8.872;2023-05-19T11:41:22;96956.13;;;14.57;59.00
3697;BME280;60662;48.810;8.872;2023-05-19T11:42:23;96956.31;;;14.37;59.12
3697;BME280;60662;48.810;8.872;2023-05-19T11:43:25;96962.75;;;14.16;58.76
3697;BME280;60662;48.810;8.872;2023-05-19T11:44:26;96965.22;;;13.85;59.00
3697;BME280;60662;48.810;8.872;2023-05-19T11:45:30;96966.34;;;13.97;59.28
3697;BME280;60662;48.810;8.872;2023-05-19T11:48:12;96955.19;;;14.10;59.83
3697;BME280;60662;48.810;8.872;2023-05-19T11:50:49;96957.78;;;13.94;59.94
3697;BME280;60662;48.810;8.872;2023-05-19T11:51:51;96949.06;;;14.09;59.78
3697;BME280;60662;48.810;8.872;2023-05-19T11:52:54;96944.69;;;14.10;59.84
3697;BME280;60662;48.810;8.872;2023-05-19T11:55:48;96933.75;;;14.49;59.89
3697;BME280;60662;48.810;8.872;2023-05-19T11:56:50;96946.91;;;14.49;59.24
3697;BME280;60662;48.810;8.872;2023-05-19T11:59:55;96949.97;;;14.58;59.97
3697;BME280;60662;48.810;8.872;2023-05-19T12:02:55;96935.69;;;14.46;60.08
3697;BME280;60662;48.810;8.872;2023-05-19T12:05:44;96959.00;;;14.52;60.60
3697;BME280;60662;48.810;8.872;2023-05-19T12:08:34;96956.72;;;14.62;60.06
3697;BME280;60662;48.810;8.872;2023-05-19T12:11:18;96948.66;;;14.33;60.94
3697;BME280;60662;48.810;8.872;2023-05-19T12:13:58;96957.75;;;14.43;61.06
3697;BME280;60662;48.810;8.872;2023-05-19T12:16:39;96954.97;;;14.46;60.34
3697;BME280;60662;48.810;8.872;2023-05-19T12:19:22;96955.94;;;14.60;59.86
3697;BME280;60662;48.810;8.872;2023-05-19T12:22:06;96955.47;;;14.53;60.75
3697;BME280;60662;48.810;8.872;2023-05-19T12:29:49;96956.06;;;14.26;61.14
3697;BME280;60662;48.810;8.872;2023-05-19T12:32:28;96960.56;;;14.40;61.11
3697;BME280;60662;48.810;8.872;2023-05-19T12:35:03;96962.16;;;14.43;61.20
3697;BME280;60662;48.810;8.872;2023-05-19T12:37:41;96967.47;;;14.57;60.80
3697;BME280;60662;48.810;8.872;2023-05-19T12:40:18;96929.00;;;14.24;60.61
3697;BME280;60662;48.810;8.872;2023-05-19T12:42:55;96965.81;;;14.40;60.84
3697;BME280;60662;48.810;8.872;2023-05-19T12:45:34;96959.03;;;14.36;60.83
3697;BME280;60662;48.810;8.872;2023-05-19T12:48:15;96960.38;;;14.43;60.96
3697;BME280;60662;48.810;8.872;2023-05-19T12:50:59;96966.41;;;14.45;61.46
3697;BME280;60662;48.810;8.872;2023-05-19T12:53:32;96966.91;;;14.52;60.93
3697;BME280;60662;48.810;8.872;2023-05-19T12:56:10;96959.94;;;14.51;61.19
3697;BME280;60662;48.810;8.872;2023-05-19T12:58:44;96958.84;;;14.39;60.95
